createdAt,value
2019-05-09T00:01:48.470Z,13.21
2019-05-09T00:04:19.445Z,13.14
2019-05-09T00:06:49.157Z,13.17
2019-05-09T00:09:20.488Z,13.16
2019-05-09T00:11:50.090Z,13.21
2019-05-09T00:14:23.776Z,13.23
2019-05-09T00:16:54.549Z,13.19
2019-05-09T00:19:25.982Z,13.19
2019-05-09T00:21:55.811Z,13.22
2019-05-09T00:24:26.339Z,13.19
2019-05-09T00:26:56.826Z,13.22
2019-05-09T00:29:35.549Z,13.24
2019-05-09T00:32:20.865Z,13.26
2019-05-09T00:35:14.149Z,13.26
2019-05-09T00:38:04.318Z,13.17
2019-05-09T00:40:35.976Z,13.07
2019-05-09T00:43:05.512Z,13.08
2019-05-09T00:45:55.123Z,13.13
2019-05-09T00:48:28.934Z,13.13
2019-05-09T00:50:58.528Z,13.18
2019-05-09T00:53:30.638Z,13.09
2019-05-09T00:56:00.118Z,13.03
2019-05-09T00:58:33.360Z,13.01
2019-05-09T01:01:04.408Z,13.05
2019-05-09T01:03:34.238Z,13.03
2019-05-09T01:06:04.571Z,12.98
2019-05-09T01:08:35.279Z,13.01
2019-05-09T01:11:11.762Z,13.03
2019-05-09T01:13:38.672Z,13.07
2019-05-09T01:16:08.273Z,13.07
2019-05-09T01:18:38.741Z,13.10
2019-05-09T01:21:08.195Z,13.05
2019-05-09T01:23:39.246Z,13.07
2019-05-09T01:26:09.900Z,12.98
2019-05-09T01:28:39.286Z,13.00
2019-05-09T01:31:10.407Z,12.94
2019-05-09T01:34:03.991Z,12.87
2019-05-09T01:36:53.898Z,12.87
2019-05-09T01:39:24.164Z,12.91
2019-05-09T01:41:55.638Z,12.85
2019-05-09T01:44:26.238Z,12.88
2019-05-09T01:46:55.823Z,12.91
2019-05-09T01:49:26.229Z,12.91
2019-05-09T01:51:55.903Z,12.85
2019-05-09T01:54:27.894Z,12.87
2019-05-09T01:56:58.702Z,12.89
2019-05-09T01:59:28.141Z,12.83
2019-05-09T02:01:57.609Z,12.80
2019-05-09T02:04:26.971Z,12.86
2019-05-09T02:06:56.411Z,12.80
2019-05-09T02:09:26.475Z,12.77
2019-05-09T02:11:56.023Z,12.74
2019-05-09T02:14:34.973Z,12.71
2019-05-09T02:17:23.875Z,12.63
2019-05-09T02:19:53.446Z,12.49
2019-05-09T02:22:34.529Z,12.49
2019-05-09T02:25:05.951Z,12.48
2019-05-09T02:27:35.414Z,12.46
2019-05-09T02:30:07.315Z,12.39
2019-05-09T02:32:37.332Z,12.38
2019-05-09T02:35:07.730Z,12.36
2019-05-09T02:37:38.881Z,12.31
2019-05-09T02:40:10.563Z,12.28
2019-05-09T02:42:40.430Z,12.26
2019-05-09T02:45:11.534Z,12.26
2019-05-09T02:47:42.430Z,12.25
2019-05-09T02:50:13.392Z,12.26
2019-05-09T02:52:44.711Z,12.22
2019-05-09T02:55:14.654Z,12.22
2019-05-09T02:57:48.955Z,12.22
2019-05-09T03:00:39.690Z,12.25
2019-05-09T03:03:20.993Z,12.22
2019-05-09T03:05:50.933Z,12.19
2019-05-09T03:08:21.475Z,12.19
2019-05-09T03:10:52.647Z,12.17
2019-05-09T03:13:22.183Z,12.18
2019-05-09T03:15:53.601Z,12.20
2019-05-09T03:18:23.007Z,12.19
2019-05-09T03:21:30.176Z,12.21
2019-05-09T03:24:02.235Z,12.21
2019-05-09T03:26:38.454Z,12.21
2019-05-09T03:29:41.751Z,12.22
2019-05-09T03:32:11.509Z,12.18
2019-05-09T03:34:42.731Z,12.21
2019-05-09T03:37:13.670Z,12.22
2019-05-09T03:39:43.478Z,12.26
2019-05-09T03:42:13.092Z,12.24
2019-05-09T03:44:43.631Z,12.22
2019-05-09T03:47:37.656Z,12.16
2019-05-09T03:50:18.574Z,12.21
2019-05-09T03:52:48.144Z,12.23
2019-05-09T03:55:22.263Z,12.25
2019-05-09T03:57:59.617Z,12.26
2019-05-09T04:00:29.102Z,12.32
2019-05-09T04:02:58.603Z,12.29
2019-05-09T04:05:29.997Z,12.32
2019-05-09T04:08:20.226Z,12.34
2019-05-09T04:10:51.372Z,12.37
2019-05-09T04:13:24.667Z,12.35
2019-05-09T04:15:55.317Z,12.39
2019-05-09T04:18:27.584Z,12.35
2019-05-09T04:20:59.652Z,12.34
2019-05-09T04:23:29.173Z,12.34
2019-05-09T04:26:14.110Z,12.35
2019-05-09T04:28:47.134Z,12.37
2019-05-09T04:31:17.831Z,12.42
2019-05-09T04:33:48.675Z,12.50
2019-05-09T04:36:22.394Z,12.64
2019-05-09T04:38:54.416Z,12.70
2019-05-09T04:41:25.384Z,12.81
2019-05-09T04:43:57.483Z,12.98
2019-05-09T04:46:27.782Z,13.17
2019-05-09T04:49:02.726Z,13.27
2019-05-09T04:51:32.442Z,13.38
2019-05-09T04:54:01.908Z,13.48
2019-05-09T04:56:38.107Z,13.50
2019-05-09T04:59:09.212Z,13.61
2019-05-09T05:01:58.662Z,13.73
2019-05-09T05:04:30.702Z,13.76
2019-05-09T05:07:01.934Z,13.70
2019-05-09T05:09:32.395Z,13.58
2019-05-09T05:12:02.072Z,13.58
2019-05-09T05:14:33.830Z,13.56
2019-05-09T05:17:10.607Z,13.58
2019-05-09T05:19:38.317Z,13.52
2019-05-09T05:22:18.261Z,13.49
2019-05-09T05:24:59.193Z,13.55
2019-05-09T05:27:28.252Z,13.46
2019-05-09T05:29:59.337Z,13.55
2019-05-09T05:33:01.190Z,13.61
2019-05-09T05:35:42.143Z,13.73
2019-05-09T05:38:14.158Z,13.83
2019-05-09T05:40:47.619Z,13.84
2019-05-09T05:43:18.185Z,13.87
2019-05-09T05:46:04.755Z,13.91
2019-05-09T05:48:35.127Z,13.90
2019-05-09T05:51:04.570Z,13.86
2019-05-09T05:53:35.229Z,13.88
2019-05-09T05:56:08.498Z,13.90
2019-05-09T05:58:40.243Z,14.03
2019-05-09T06:01:09.794Z,13.97
2019-05-09T06:03:39.396Z,14.03
2019-05-09T06:06:09.081Z,14.10
2019-05-09T06:08:40.960Z,14.15
2019-05-09T06:11:12.239Z,14.22
2019-05-09T06:13:54.500Z,14.05
2019-05-09T06:16:19.013Z,14.05
2019-05-09T06:18:48.791Z,14.08
2019-05-09T06:21:18.301Z,14.10
2019-05-09T06:23:50.534Z,14.18
2019-05-09T06:26:20.063Z,14.17
2019-05-09T06:28:51.369Z,14.21
2019-05-09T06:31:22.747Z,14.18
2019-05-09T06:33:54.215Z,14.22
2019-05-09T06:36:23.820Z,14.28
2019-05-09T06:38:53.309Z,14.35
2019-05-09T06:41:22.869Z,14.47
2019-05-09T06:44:13.228Z,14.44
2019-05-09T06:46:38.989Z,14.49
2019-05-09T06:49:24.203Z,14.55
2019-05-09T06:51:43.727Z,14.64
2019-05-09T06:54:14.309Z,14.59
2019-05-09T06:56:43.778Z,14.41
2019-05-09T06:59:14.992Z,14.48
2019-05-09T07:01:51.799Z,14.52
2019-05-09T07:04:30.232Z,14.65
2019-05-09T07:07:08.001Z,14.74
2019-05-09T07:09:51.246Z,14.48
2019-05-09T07:12:20.770Z,14.63
2019-05-09T07:14:50.363Z,14.72
2019-05-09T07:17:21.624Z,14.76
2019-05-09T07:19:52.250Z,14.58
2019-05-09T07:22:38.832Z,14.50
2019-05-09T07:25:32.004Z,14.51
2019-05-09T07:28:03.254Z,14.40
2019-05-09T07:30:49.606Z,14.43
2019-05-09T07:33:27.967Z,14.38
2019-05-09T07:35:58.183Z,14.22
2019-05-09T07:38:31.994Z,14.23
2019-05-09T07:41:02.669Z,14.09
2019-05-09T07:43:35.101Z,14.06
2019-05-09T07:46:08.960Z,14.15
2019-05-09T07:48:41.890Z,14.11
2019-05-09T07:51:12.769Z,14.07
2019-05-09T07:53:42.187Z,13.97
2019-05-09T07:56:15.158Z,14.02
2019-05-09T07:58:45.157Z,13.93
2019-05-09T08:01:14.640Z,13.90
2019-05-09T08:03:44.044Z,14.07
2019-05-09T08:06:15.059Z,14.23
2019-05-09T08:08:47.667Z,14.63
2019-05-09T08:11:19.112Z,15.11
2019-05-09T08:13:50.281Z,15.53
2019-05-09T08:16:20.847Z,15.77
2019-05-09T08:18:50.827Z,15.82
2019-05-09T08:21:20.466Z,15.80
2019-05-09T08:23:50.009Z,15.57
2019-05-09T08:26:20.699Z,15.37
2019-05-09T08:28:50.490Z,15.30
2019-05-09T08:31:21.507Z,15.29
2019-05-09T08:33:51.060Z,15.28
2019-05-09T08:36:20.894Z,15.21
2019-05-09T08:38:52.710Z,15.21
2019-05-09T08:41:22.167Z,15.33
2019-05-09T08:43:53.597Z,15.29
2019-05-09T08:46:28.600Z,15.60
2019-05-09T08:48:58.039Z,15.90
2019-05-09T08:51:36.722Z,15.77
2019-05-09T08:54:06.160Z,15.84
2019-05-09T08:56:38.766Z,15.90
2019-05-09T08:59:12.062Z,15.80
2019-05-09T09:02:10.025Z,15.90
2019-05-09T09:04:15.821Z,16.17
2019-05-09T09:06:48.296Z,15.99
2019-05-09T09:09:18.077Z,16.17
2019-05-09T09:11:49.507Z,16.93
2019-05-09T09:14:19.040Z,17.12
2019-05-09T09:16:48.629Z,16.84
2019-05-09T09:19:19.143Z,17.12
2019-05-09T09:21:49.724Z,17.14
2019-05-09T09:24:20.649Z,17.08
2019-05-09T09:26:51.834Z,17.24
2019-05-09T09:29:24.168Z,17.35
2019-05-09T09:31:57.684Z,17.58
2019-05-09T09:34:30.063Z,18.12
2019-05-09T09:37:05.444Z,19.69
2019-05-09T09:39:33.123Z,20.12
2019-05-09T09:42:05.217Z,20.97
2019-05-09T09:44:38.784Z,21.09
2019-05-09T09:47:11.691Z,21.18
2019-05-09T09:49:44.358Z,19.70
2019-05-09T09:52:14.961Z,19.31
2019-05-09T09:54:48.080Z,19.72
2019-05-09T09:57:19.098Z,19.57
2019-05-09T09:59:55.006Z,19.14
2019-05-09T10:02:29.205Z,19.15
2019-05-09T10:04:59.132Z,19.45
2019-05-09T10:07:28.771Z,18.93
2019-05-09T10:09:58.591Z,19.21
2019-05-09T10:12:30.176Z,19.41
2019-05-09T10:15:20.668Z,19.68
2019-05-09T10:17:58.251Z,19.61
2019-05-09T10:20:44.764Z,19.36
2019-05-09T10:23:18.863Z,19.08
2019-05-09T10:25:45.835Z,19.92
2019-05-09T10:28:21.497Z,19.72
2019-05-09T10:30:51.076Z,20.12
2019-05-09T10:33:23.588Z,19.67
2019-05-09T10:35:54.165Z,18.96
2019-05-09T10:38:27.995Z,19.12
2019-05-09T10:41:01.257Z,19.03
2019-05-09T10:43:52.248Z,18.94
2019-05-09T10:46:52.651Z,18.58
2019-05-09T10:49:16.115Z,18.54
2019-05-09T10:51:45.619Z,18.43
2019-05-09T10:54:18.577Z,18.29
2019-05-09T10:56:48.929Z,18.49
2019-05-09T10:59:18.598Z,18.79
2019-05-09T11:01:49.731Z,19.20
2019-05-09T11:04:20.736Z,19.44
2019-05-09T11:06:50.426Z,19.49
2019-05-09T11:09:20.986Z,19.71
2019-05-09T11:11:51.832Z,19.75
2019-05-09T11:14:36.191Z,19.66
2019-05-09T11:17:07.972Z,19.78
2019-05-09T11:19:29.451Z,19.81
2019-05-09T11:22:00.172Z,19.61
2019-05-09T11:24:41.834Z,19.59
2019-05-09T11:27:01.444Z,19.46
2019-05-09T11:29:31.870Z,19.46
2019-05-09T11:32:03.441Z,19.37
2019-05-09T11:34:32.970Z,19.28
2019-05-09T11:37:02.576Z,19.22
2019-05-09T11:39:39.012Z,19.17
2019-05-09T11:42:04.660Z,18.96
2019-05-09T11:44:38.396Z,18.93
2019-05-09T11:47:26.819Z,19.02
2019-05-09T11:49:39.249Z,19.04
2019-05-09T11:52:09.856Z,18.96
2019-05-09T11:54:39.580Z,19.24
2019-05-09T11:57:09.114Z,19.68
2019-05-09T11:59:41.089Z,19.81
2019-05-09T12:02:11.283Z,19.61
2019-05-09T12:04:42.620Z,19.56
2019-05-09T12:07:13.145Z,19.31
2019-05-09T12:09:42.755Z,19.55
2019-05-09T12:12:13.224Z,19.53
2019-05-09T12:14:44.124Z,19.49
2019-05-09T12:17:14.034Z,19.61
2019-05-09T12:19:43.503Z,19.69
2019-05-09T12:22:13.430Z,19.78
2019-05-09T12:24:44.943Z,20.00
2019-05-09T12:27:14.511Z,20.09
2019-05-09T12:29:48.217Z,19.91
2019-05-09T12:32:18.630Z,19.98
2019-05-09T12:34:48.593Z,19.83
2019-05-09T12:37:19.402Z,19.75
2019-05-09T12:39:49.184Z,19.48
2019-05-09T12:42:20.705Z,19.63
2019-05-09T12:44:51.154Z,19.70
2019-05-09T12:47:21.036Z,19.88
2019-05-09T12:49:51.664Z,19.89
2019-05-09T12:52:22.959Z,19.79
2019-05-09T12:54:58.294Z,19.81
2019-05-09T12:57:29.710Z,19.58
2019-05-09T13:00:00.240Z,19.68
2019-05-09T13:02:29.933Z,19.69
2019-05-09T13:04:59.362Z,19.68
2019-05-09T13:07:30.320Z,19.61
2019-05-09T13:10:00.436Z,19.58
2019-05-09T13:12:30.919Z,19.61
2019-05-09T13:15:00.493Z,19.68
2019-05-09T13:17:38.394Z,19.70
2019-05-09T13:20:08.921Z,19.67
2019-05-09T13:22:38.431Z,19.92
2019-05-09T13:25:10.291Z,20.04
2019-05-09T13:27:41.453Z,20.04
2019-05-09T13:30:11.574Z,20.10
2019-05-09T13:32:41.503Z,20.29
2019-05-09T13:35:11.187Z,20.43
2019-05-09T13:37:40.902Z,20.58
2019-05-09T13:40:10.493Z,20.62
2019-05-09T13:42:42.791Z,20.54
2019-05-09T13:45:14.126Z,20.33
2019-05-09T13:47:48.490Z,20.14
2019-05-09T13:50:18.797Z,20.06
2019-05-09T13:52:50.029Z,19.87
2019-05-09T13:55:19.634Z,19.76
2019-05-09T13:57:50.100Z,19.68
2019-05-09T14:00:20.716Z,19.65
2019-05-09T14:02:50.627Z,19.75
2019-05-09T14:05:20.133Z,19.85
2019-05-09T14:07:54.318Z,19.93
2019-05-09T14:10:20.844Z,20.06
2019-05-09T14:13:05.668Z,20.07
2019-05-09T14:15:22.569Z,20.08
2019-05-09T14:17:54.136Z,20.01
2019-05-09T14:20:24.804Z,19.97
2019-05-09T14:22:54.353Z,19.79
2019-05-09T14:25:28.931Z,19.68
2019-05-09T14:27:58.821Z,19.70
2019-05-09T14:30:28.686Z,19.80
2019-05-09T14:33:00.330Z,19.84
2019-05-09T14:35:33.176Z,19.90
2019-05-09T14:38:02.884Z,19.91
2019-05-09T14:40:33.520Z,20.01
2019-05-09T14:43:03.025Z,20.00
2019-05-09T14:45:32.566Z,19.95
2019-05-09T14:48:01.931Z,19.66
2019-05-09T14:50:32.358Z,19.58
2019-05-09T14:53:01.977Z,19.48
2019-05-09T14:55:31.381Z,19.37
2019-05-09T14:58:00.769Z,19.30
2019-05-09T15:00:30.202Z,19.39
2019-05-09T15:03:00.669Z,19.37
2019-05-09T15:05:30.002Z,19.37
2019-05-09T15:07:59.527Z,19.53
2019-05-09T15:10:30.581Z,19.58
2019-05-09T15:13:01.158Z,19.63
2019-05-09T15:15:32.722Z,19.61
2019-05-09T15:18:03.423Z,19.58
2019-05-09T15:20:34.027Z,19.61
2019-05-09T15:23:03.652Z,19.75
2019-05-09T15:25:33.139Z,19.88
2019-05-09T15:28:07.981Z,19.90
2019-05-09T15:30:38.506Z,19.94
2019-05-09T15:33:10.066Z,19.94
2019-05-09T15:35:39.752Z,19.94
2019-05-09T15:38:10.314Z,19.94
2019-05-09T15:40:40.115Z,19.97
2019-05-09T15:43:11.296Z,19.92
2019-05-09T15:46:03.006Z,19.80
2019-05-09T15:48:32.526Z,19.81
2019-05-09T15:51:03.993Z,19.70
2019-05-09T15:53:33.593Z,19.58
2019-05-09T15:56:03.066Z,19.50
2019-05-09T15:58:32.622Z,19.55
2019-05-09T16:01:08.135Z,19.42
2019-05-09T16:03:38.376Z,19.14
2019-05-09T16:06:09.005Z,18.92
2019-05-09T16:08:39.727Z,18.83
2019-05-09T16:11:09.145Z,18.74
2019-05-09T16:13:38.658Z,18.62
2019-05-09T16:16:09.029Z,18.37
2019-05-09T16:18:42.924Z,18.31
2019-05-09T16:21:14.035Z,18.22
2019-05-09T16:23:43.545Z,18.25
2019-05-09T16:26:14.033Z,18.30
2019-05-09T16:28:45.305Z,18.26
2019-05-09T16:31:14.837Z,18.11
2019-05-09T16:33:44.674Z,18.04
2019-05-09T16:36:17.617Z,18.15
2019-05-09T16:38:49.075Z,18.20
2019-05-09T16:41:20.892Z,18.38
2019-05-09T16:43:52.637Z,18.37
2019-05-09T16:46:23.238Z,18.32
2019-05-09T16:48:52.708Z,18.31
2019-05-09T16:51:23.270Z,18.17
2019-05-09T16:53:54.511Z,18.16
2019-05-09T16:56:25.598Z,18.14
2019-05-09T16:58:57.677Z,18.13
2019-05-09T17:01:28.434Z,18.12
2019-05-09T17:03:58.153Z,18.23
2019-05-09T17:06:28.181Z,18.24
2019-05-09T17:09:00.066Z,18.17
2019-05-09T17:11:29.822Z,18.24
2019-05-09T17:14:00.366Z,18.10
2019-05-09T17:16:31.446Z,18.03
2019-05-09T17:19:01.141Z,18.00
2019-05-09T17:21:49.689Z,17.89
2019-05-09T17:24:21.972Z,17.80
2019-05-09T17:26:51.604Z,17.76
2019-05-09T17:29:22.666Z,17.74
2019-05-09T17:31:54.752Z,17.61
2019-05-09T17:34:24.228Z,17.54
2019-05-09T17:36:54.443Z,17.57
2019-05-09T17:39:24.268Z,17.54
2019-05-09T17:41:55.207Z,17.51
2019-05-09T17:44:28.015Z,17.51
2019-05-09T17:46:58.419Z,17.46
2019-05-09T17:49:28.173Z,17.37
2019-05-09T17:51:58.859Z,17.20
2019-05-09T17:54:28.900Z,17.21
2019-05-09T17:56:58.525Z,17.20
2019-05-09T17:59:29.529Z,17.13
2019-05-09T18:02:02.110Z,17.07
2019-05-09T18:04:31.646Z,17.05
2019-05-09T18:07:04.285Z,17.00
2019-05-09T18:09:33.938Z,16.98
2019-05-09T18:12:03.427Z,17.00
2019-05-09T18:14:35.449Z,16.96
2019-05-09T18:17:05.315Z,16.87
2019-05-09T18:19:34.775Z,16.78
2019-05-09T18:22:07.643Z,16.76
2019-05-09T18:24:38.192Z,16.75
2019-05-09T18:27:09.284Z,16.70
2019-05-09T18:29:39.732Z,16.67
2019-05-09T18:32:40.068Z,16.65
2019-05-09T18:35:20.957Z,16.61
2019-05-09T18:37:52.412Z,16.59
2019-05-09T18:40:22.681Z,16.58
2019-05-09T18:42:55.058Z,16.59
2019-05-09T18:45:28.333Z,16.65
2019-05-09T18:47:58.673Z,16.65
2019-05-09T18:50:28.490Z,16.67
2019-05-09T18:52:58.424Z,16.69
2019-05-09T18:55:29.667Z,16.73
2019-05-09T18:58:00.284Z,16.71
2019-05-09T19:00:31.347Z,16.69
2019-05-09T19:03:00.841Z,16.69
2019-05-09T19:05:32.242Z,16.69
2019-05-09T19:08:02.032Z,16.72
2019-05-09T19:10:31.728Z,16.77
2019-05-09T19:13:03.696Z,16.66
2019-05-09T19:15:58.226Z,16.70
2019-05-09T19:19:00.099Z,16.63
2019-05-09T19:21:41.789Z,16.68
2019-05-09T19:24:11.320Z,16.67
2019-05-09T19:26:40.930Z,16.66
2019-05-09T19:29:13.499Z,16.59
2019-05-09T19:31:44.690Z,16.63
2019-05-09T19:34:14.079Z,16.66
2019-05-09T19:36:43.532Z,16.68
2019-05-09T19:39:13.500Z,16.69
2019-05-09T19:42:16.073Z,16.64
2019-05-09T19:44:45.481Z,16.64
2019-05-09T19:47:14.852Z,16.58
2019-05-09T19:49:44.562Z,16.57
2019-05-09T19:52:13.963Z,16.54
2019-05-09T19:54:43.378Z,16.56
2019-05-09T19:57:14.030Z,16.50
2019-05-09T19:59:44.712Z,16.39
2019-05-09T20:02:14.161Z,16.27
2019-05-09T20:04:43.668Z,16.23
2019-05-09T20:07:17.065Z,16.14
2019-05-09T20:09:51.963Z,16.07
2019-05-09T20:12:37.000Z,16.01
2019-05-09T20:15:08.245Z,15.85
2019-05-09T20:17:38.956Z,15.78
2019-05-09T20:20:10.916Z,15.67
2019-05-09T20:22:52.428Z,15.55
2019-05-09T20:25:14.319Z,15.45
2019-05-09T20:27:45.592Z,15.43
2019-05-09T20:30:15.506Z,15.45
2019-05-09T20:32:45.006Z,15.47
2019-05-09T20:35:14.531Z,15.53
2019-05-09T20:37:44.318Z,15.51
2019-05-09T20:40:16.103Z,15.41
2019-05-09T20:42:45.822Z,15.38
2019-05-09T20:45:15.877Z,15.35
2019-05-09T20:47:46.739Z,15.31
2019-05-09T20:50:44.782Z,15.31
2019-05-09T20:53:14.318Z,15.34
2019-05-09T20:55:46.381Z,15.31
2019-05-09T20:58:17.988Z,15.29
2019-05-09T21:00:47.719Z,15.33
2019-05-09T21:03:17.507Z,15.34
2019-05-09T21:05:47.328Z,15.41
2019-05-09T21:08:17.096Z,15.44
2019-05-09T21:10:47.864Z,15.48
2019-05-09T21:13:20.547Z,15.49
2019-05-09T21:15:51.246Z,15.49
2019-05-09T21:18:20.958Z,15.51
2019-05-09T21:20:52.048Z,15.50
2019-05-09T21:23:25.067Z,15.52
2019-05-09T21:25:54.865Z,15.53
2019-05-09T21:28:25.599Z,15.52
2019-05-09T21:30:55.263Z,15.53
2019-05-09T21:33:24.973Z,15.54
2019-05-09T21:35:54.813Z,15.53
2019-05-09T21:38:24.335Z,15.53
2019-05-09T21:40:53.837Z,15.50
2019-05-09T21:43:23.718Z,15.47
2019-05-09T21:45:53.141Z,15.43
2019-05-09T21:48:22.564Z,15.38
2019-05-09T21:50:53.149Z,15.41
2019-05-09T21:53:22.707Z,15.39
2019-05-09T21:55:52.224Z,15.40
2019-05-09T21:58:21.831Z,15.42
2019-05-09T22:00:55.020Z,15.41
2019-05-09T22:03:24.722Z,15.38
2019-05-09T22:05:54.597Z,15.35
2019-05-09T22:08:25.182Z,15.40
2019-05-09T22:10:56.447Z,15.43
2019-05-09T22:13:27.659Z,15.37
2019-05-09T22:15:57.330Z,15.28
2019-05-09T22:18:28.146Z,15.29
2019-05-09T22:20:57.628Z,15.29
2019-05-09T22:23:27.211Z,15.28
2019-05-09T22:25:56.666Z,15.25
2019-05-09T22:28:27.802Z,15.21
2019-05-09T22:30:57.615Z,15.21
2019-05-09T22:33:28.117Z,15.15
2019-05-09T22:35:57.681Z,15.15
2019-05-09T22:38:27.099Z,15.08
2019-05-09T22:40:56.489Z,15.08
2019-05-09T22:43:26.052Z,15.01
2019-05-09T22:45:56.244Z,14.98
2019-05-09T22:48:25.819Z,14.89
2019-05-09T22:50:59.011Z,14.84
2019-05-09T22:53:29.954Z,14.81
2019-05-09T22:56:00.760Z,14.70
2019-05-09T22:58:36.129Z,14.64
2019-05-09T23:01:06.632Z,14.57
2019-05-09T23:03:44.818Z,14.49
2019-05-09T23:06:14.310Z,14.49
2019-05-09T23:08:45.134Z,14.47
2019-05-09T23:11:16.881Z,14.48
2019-05-09T23:13:52.635Z,14.44
2019-05-09T23:16:29.652Z,14.38
2019-05-09T23:18:59.526Z,14.39
2019-05-09T23:21:31.492Z,14.38
2019-05-09T23:24:27.435Z,14.42
2019-05-09T23:26:44.333Z,14.44
2019-05-09T23:29:13.770Z,14.49
2019-05-09T23:31:54.759Z,14.50
2019-05-09T23:34:25.611Z,14.49
2019-05-09T23:39:45.656Z,14.49
2019-05-09T23:42:15.142Z,14.49
2019-05-09T23:44:45.669Z,14.50
2019-05-09T23:47:18.475Z,14.46
2019-05-09T23:49:49.033Z,14.52
2019-05-09T23:52:19.775Z,14.54
2019-05-09T23:55:08.548Z,14.51
2019-05-09T23:57:55.723Z,14.46
